sensor_id;sensor_type;location;lat;lon;timestamp;P1;P2;P0
65383;PMS5003;51986;52.788;41.368;2022-12-05T00:01:16;0.00;0.00;0.00
65383;PMS5003;51986;52.788;41.368;2022-12-05T00:03:46;0.00;0.00;0.00
65383;PMS5003;51986;52.788;41.368;2022-12-05T00:06:15;0.00;0.00;0.00
65383;PMS5003;51986;52.788;41.368;2022-12-05T00:08:43;1.00;0.00;0.00
65383;PMS5003;51986;52.788;41.368;2022-12-05T00:11:11;1.00;0.00;0.00
65383;PMS5003;51986;52.788;41.368;2022-12-05T00:13:44;1.00;1.00;0.00
65383;PMS5003;51986;52.788;41.368;2022-12-05T00:16:30;0.00;0.00;0.00
65383;PMS5003;51986;52.788;41.368;2022-12-05T00:18:59;0.00;0.00;0.00
65383;PMS5003;51986;52.788;41.368;2022-12-05T00:21:27;0.00;0.00;0.00
65383;PMS5003;51986;52.788;41.368;2022-12-05T00:23:57;0.00;0.00;0.00
65383;PMS5003;51986;52.788;41.368;2022-12-05T00:26:26;0.00;0.00;0.00
65383;PMS5003;51986;52.788;41.368;2022-12-05T00:28:55;0.00;0.00;0.00
65383;PMS5003;51986;52.788;41.368;2022-12-05T00:31:23;0.00;0.00;0.00
65383;PMS5003;51986;52.788;41.368;2022-12-05T00:33:51;0.00;0.00;0.00
65383;PMS5003;51986;52.788;41.368;2022-12-05T00:36:23;0.00;0.00;0.00
65383;PMS5003;51986;52.788;41.368;2022-12-05T00:38:52;1.00;1.00;0.00
65383;PMS5003;51986;52.788;41.368;2022-12-05T00:41:21;0.75;0.75;0.00
65383;PMS5003;51986;52.788;41.368;2022-12-05T00:43:51;0.00;0.00;0.00
65383;PMS5003;51986;52.788;41.368;2022-12-05T00:46:19;1.00;1.00;0.00
65383;PMS5003;51986;52.788;41.368;2022-12-05T00:48:48;1.00;1.00;0.00
65383;PMS5003;51986;52.788;41.368;2022-12-05T00:51:17;0.00;0.00;0.00
65383;PMS5003;51986;52.788;41.368;2022-12-05T00:53:46;0.00;0.00;0.00
65383;PMS5003;51986;52.788;41.368;2022-12-05T00:56:14;1.00;0.75;0.00
65383;PMS5003;51986;52.788;41.368;2022-12-05T00:58:43;1.00;0.00;0.00
65383;PMS5003;51986;52.788;41.368;2022-12-05T01:01:12;0.00;0.00;0.00
65383;PMS5003;51986;52.788;41.368;2022-12-05T01:03:39;0.00;0.00;0.00
65383;PMS5003;51986;52.788;41.368;2022-12-05T01:06:07;1.00;1.00;0.00
65383;PMS5003;51986;52.788;41.368;2022-12-05T01:08:35;1.00;1.00;0.00
65383;PMS5003;51986;52.788;41.368;2022-12-05T01:11:03;1.00;1.00;0.00
65383;PMS5003;51986;52.788;41.368;2022-12-05T01:13:32;0.50;0.00;0.00
65383;PMS5003;51986;52.788;41.368;2022-12-05T01:15:59;1.00;1.00;0.00
65383;PMS5003;51986;52.788;41.368;2022-12-05T01:18:26;0.25;0.00;0.00
65383;PMS5003;51986;52.788;41.368;2022-12-05T01:20:55;0.00;0.00;0.00
65383;PMS5003;51986;52.788;41.368;2022-12-05T01:23:22;1.00;0.00;0.00
65383;PMS5003;51986;52.788;41.368;2022-12-05T01:25:50;0.00;0.00;0.00
65383;PMS5003;51986;52.788;41.368;2022-12-05T01:28:18;0.00;0.00;0.00
65383;PMS5003;51986;52.788;41.368;2022-12-05T01:30:46;0.00;0.00;0.00
65383;PMS5003;51986;52.788;41.368;2022-12-05T01:33:14;0.00;0.00;0.00
65383;PMS5003;51986;52.788;41.368;2022-12-05T01:35:42;0.00;0.00;0.00
65383;PMS5003;51986;52.788;41.368;2022-12-05T01:38:10;0.00;0.00;0.00
65383;PMS5003;51986;52.788;41.368;2022-12-05T01:40:38;0.00;0.00;0.00
65383;PMS5003;51986;52.788;41.368;2022-12-05T01:43:12;0.25;0.25;0.00
65383;PMS5003;51986;52.788;41.368;2022-12-05T01:45:43;2.25;1.25;0.00
65383;PMS5003;51986;52.788;41.368;2022-12-05T01:48:45;0.00;0.00;0.00
65383;PMS5003;51986;52.788;41.368;2022-12-05T01:51:05;1.00;0.00;0.00
65383;PMS5003;51986;52.788;41.368;2022-12-05T01:53:32;0.00;0.00;0.00
65383;PMS5003;51986;52.788;41.368;2022-12-05T01:55:59;0.00;0.00;0.00
65383;PMS5003;51986;52.788;41.368;2022-12-05T01:58:27;0.00;0.00;0.00
65383;PMS5003;51986;52.788;41.368;2022-12-05T02:01:00;1.00;0.00;0.00
65383;PMS5003;51986;52.788;41.368;2022-12-05T02:03:27;0.00;0.00;0.00
65383;PMS5003;51986;52.788;41.368;2022-12-05T02:05:55;0.00;0.00;0.00
65383;PMS5003;51986;52.788;41.368;2022-12-05T02:08:26;0.00;0.00;0.00
65383;PMS5003;51986;52.788;41.368;2022-12-05T02:10:55;0.00;0.00;0.00
65383;PMS5003;51986;52.788;41.368;2022-12-05T02:30:14;0.00;0.00;0.00
65383;PMS5003;51986;52.788;41.368;2022-12-05T02:38:37;1.00;0.00;0.00
65383;PMS5003;51986;52.788;41.368;2022-12-05T02:41:26;0.00;0.00;0.00
65383;PMS5003;51986;52.788;41.368;2022-12-05T02:44:03;0.00;0.00;0.00
65383;PMS5003;51986;52.788;41.368;2022-12-05T02:46:39;0.00;0.00;0.00
65383;PMS5003;51986;52.788;41.368;2022-12-05T02:49:09;0.00;0.00;0.00
65383;PMS5003;51986;52.788;41.368;2022-12-05T02:51:44;0.00;0.00;0.00
65383;PMS5003;51986;52.788;41.368;2022-12-05T02:54:15;0.00;0.00;0.00
65383;PMS5003;51986;52.788;41.368;2022-12-05T02:56:49;0.00;0.00;0.00
65383;PMS5003;51986;52.788;41.368;2022-12-05T02:59:18;0.00;0.00;0.00
65383;PMS5003;51986;52.788;41.368;2022-12-05T03:01:49;0.00;0.00;0.00
65383;PMS5003;51986;52.788;41.368;2022-12-05T03:04:17;0.00;0.00;0.00
65383;PMS5003;51986;52.788;41.368;2022-12-05T03:06:59;0.00;0.00;0.00
65383;PMS5003;51986;52.788;41.368;2022-12-05T03:09:35;0.00;0.00;0.00
65383;PMS5003;51986;52.788;41.368;2022-12-05T03:12:09;0.00;0.00;0.00
65383;PMS5003;51986;52.788;41.368;2022-12-05T03:14:46;0.00;0.00;0.00
65383;PMS5003;51986;52.788;41.368;2022-12-05T03:17:22;0.00;0.00;0.00
65383;PMS5003;51986;52.788;41.368;2022-12-05T03:20:06;0.00;0.00;0.00
65383;PMS5003;51986;52.788;41.368;2022-12-05T03:22:41;0.00;0.00;0.00
65383;PMS5003;51986;52.788;41.368;2022-12-05T03:25:13;0.00;0.00;0.00
65383;PMS5003;51986;52.788;41.368;2022-12-05T03:27:46;1.00;0.00;0.00
65383;PMS5003;51986;52.788;41.368;2022-12-05T03:30:20;0.00;0.00;0.00
65383;PMS5003;51986;52.788;41.368;2022-12-05T03:32:54;1.00;0.00;0.00
65383;PMS5003;51986;52.788;41.368;2022-12-05T03:38:12;1.00;0.00;0.00
65383;PMS5003;51986;52.788;41.368;2022-12-05T03:43:43;1.00;1.00;0.00
65383;PMS5003;51986;52.788;41.368;2022-12-05T03:46:25;0.00;0.00;0.00
65383;PMS5003;51986;52.788;41.368;2022-12-05T03:48:59;0.00;0.00;0.00
65383;PMS5003;51986;52.788;41.368;2022-12-05T03:51:32;1.00;1.00;0.00
65383;PMS5003;51986;52.788;41.368;2022-12-05T03:54:13;0.00;0.00;0.00
65383;PMS5003;51986;52.788;41.368;2022-12-05T03:56:48;0.00;0.00;0.00
65383;PMS5003;51986;52.788;41.368;2022-12-05T03:59:39;3.00;2.75;0.00
65383;PMS5003;51986;52.788;41.368;2022-12-05T04:02:29;2.00;2.00;0.00
65383;PMS5003;51986;52.788;41.368;2022-12-05T04:05:05;3.75;2.00;0.00
65383;PMS5003;51986;52.788;41.368;2022-12-05T04:07:37;3.00;3.00;0.00
65383;PMS5003;51986;52.788;41.368;2022-12-05T04:10:18;2.00;1.00;0.00
65383;PMS5003;51986;52.788;41.368;2022-12-05T04:12:51;3.00;1.75;0.00
65383;PMS5003;51986;52.788;41.368;2022-12-05T04:15:22;3.00;1.25;0.00
65383;PMS5003;51986;52.788;41.368;2022-12-05T04:17:57;1.00;1.00;0.00
65383;PMS5003;51986;52.788;41.368;2022-12-05T04:20:39;2.25;2.00;0.00
65383;PMS5003;51986;52.788;41.368;2022-12-05T04:23:07;3.00;2.00;0.25
65383;PMS5003;51986;52.788;41.368;2022-12-05T04:25:36;1.00;1.00;0.00
65383;PMS5003;51986;52.788;41.368;2022-12-05T04:31:13;1.50;1.25;0.00
65383;PMS5003;51986;52.788;41.368;2022-12-05T04:38:59;3.25;3.00;0.25
65383;PMS5003;51986;52.788;41.368;2022-12-05T04:41:50;5.00;5.00;1.00
65383;PMS5003;51986;52.788;41.368;2022-12-05T04:44:22;2.50;2.00;0.00
65383;PMS5003;51986;52.788;41.368;2022-12-05T04:46:53;5.00;3.00;1.00
65383;PMS5003;51986;52.788;41.368;2022-12-05T04:49:24;3.00;2.00;1.00
65383;PMS5003;51986;52.788;41.368;2022-12-05T04:51:54;5.00;4.00;2.00
65383;PMS5003;51986;52.788;41.368;2022-12-05T04:54:35;4.25;3.00;1.00
65383;PMS5003;51986;52.788;41.368;2022-12-05T04:57:29;3.00;3.00;2.00
65383;PMS5003;51986;52.788;41.368;2022-12-05T05:00:01;4.00;3.50;1.00
65383;PMS5003;51986;52.788;41.368;2022-12-05T05:02:36;3.75;3.00;1.25
65383;PMS5003;51986;52.788;41.368;2022-12-05T05:05:10;4.00;4.00;1.00
65383;PMS5003;51986;52.788;41.368;2022-12-05T05:07:42;3.75;3.00;1.00
65383;PMS5003;51986;52.788;41.368;2022-12-05T05:10:19;3.00;3.00;1.00
65383;PMS5003;51986;52.788;41.368;2022-12-05T05:13:02;1.00;0.00;0.00
65383;PMS5003;51986;52.788;41.368;2022-12-05T05:15:29;1.00;1.00;0.00
65383;PMS5003;51986;52.788;41.368;2022-12-05T05:17:56;1.25;1.00;0.00
65383;PMS5003;51986;52.788;41.368;2022-12-05T05:20:23;3.00;3.00;1.00
65383;PMS5003;51986;52.788;41.368;2022-12-05T05:22:50;3.00;2.00;1.00
65383;PMS5003;51986;52.788;41.368;2022-12-05T05:25:18;3.00;3.00;1.00
65383;PMS5003;51986;52.788;41.368;2022-12-05T05:27:50;4.00;3.00;0.25
65383;PMS5003;51986;52.788;41.368;2022-12-05T05:30:19;3.00;2.00;0.00
65383;PMS5003;51986;52.788;41.368;2022-12-05T05:32:47;1.00;1.00;0.00
65383;PMS5003;51986;52.788;41.368;2022-12-05T05:35:15;1.50;1.00;0.00
65383;PMS5003;51986;52.788;41.368;2022-12-05T05:37:43;2.00;2.00;1.00
65383;PMS5003;51986;52.788;41.368;2022-12-05T05:40:10;3.00;2.00;0.00
65383;PMS5003;51986;52.788;41.368;2022-12-05T05:42:42;1.00;1.00;0.00
65383;PMS5003;51986;52.788;41.368;2022-12-05T05:45:11;1.00;1.00;0.00
65383;PMS5003;51986;52.788;41.368;2022-12-05T05:47:40;1.00;1.00;0.00
65383;PMS5003;51986;52.788;41.368;2022-12-05T05:50:07;2.00;1.75;0.00
65383;PMS5003;51986;52.788;41.368;2022-12-05T05:52:35;4.00;3.00;0.00
65383;PMS5003;51986;52.788;41.368;2022-12-05T05:55:04;1.00;1.00;0.00
65383;PMS5003;51986;52.788;41.368;2022-12-05T05:57:31;1.00;0.50;0.00
65383;PMS5003;51986;52.788;41.368;2022-12-05T05:59:58;2.00;1.00;0.00
65383;PMS5003;51986;52.788;41.368;2022-12-05T06:02:30;3.00;2.00;0.00
65383;PMS5003;51986;52.788;41.368;2022-12-05T06:04:58;2.00;2.00;0.00
65383;PMS5003;51986;52.788;41.368;2022-12-05T06:07:25;3.00;3.00;0.25
65383;PMS5003;51986;52.788;41.368;2022-12-05T06:09:52;1.50;1.50;0.00
65383;PMS5003;51986;52.788;41.368;2022-12-05T06:12:19;4.00;3.00;1.00
65383;PMS5003;51986;52.788;41.368;2022-12-05T06:14:47;4.00;4.00;1.25
65383;PMS5003;51986;52.788;41.368;2022-12-05T06:17:14;2.75;2.75;1.00
65383;PMS5003;51986;52.788;41.368;2022-12-05T06:19:41;4.00;4.00;1.00
65383;PMS5003;51986;52.788;41.368;2022-12-05T06:22:08;1.00;1.00;0.25
65383;PMS5003;51986;52.788;41.368;2022-12-05T06:24:35;3.00;3.00;0.00
65383;PMS5003;51986;52.788;41.368;2022-12-05T06:27:02;3.00;3.00;0.00
65383;PMS5003;51986;52.788;41.368;2022-12-05T06:29:29;5.00;5.00;3.00
65383;PMS5003;51986;52.788;41.368;2022-12-05T06:31:59;5.25;5.25;2.00
65383;PMS5003;51986;52.788;41.368;2022-12-05T06:34:27;4.75;4.00;2.00
65383;PMS5003;51986;52.788;41.368;2022-12-05T06:36:54;4.25;4.25;2.00
65383;PMS5003;51986;52.788;41.368;2022-12-05T06:39:21;6.00;4.25;2.00
65383;PMS5003;51986;52.788;41.368;2022-12-05T06:41:48;5.50;5.25;2.00
65383;PMS5003;51986;52.788;41.368;2022-12-05T06:44:14;6.00;6.00;3.00
65383;PMS5003;51986;52.788;41.368;2022-12-05T06:46:41;9.00;9.00;4.75
65383;PMS5003;51986;52.788;41.368;2022-12-05T06:49:08;10.00;9.00;3.00
65383;PMS5003;51986;52.788;41.368;2022-12-05T06:51:36;10.00;6.00;3.00
65383;PMS5003;51986;52.788;41.368;2022-12-05T06:54:03;8.75;5.25;3.00
65383;PMS5003;51986;52.788;41.368;2022-12-05T06:56:29;8.75;6.00;3.75
65383;PMS5003;51986;52.788;41.368;2022-12-05T06:58:57;9.25;8.00;3.00
65383;PMS5003;51986;52.788;41.368;2022-12-05T07:01:24;8.25;7.00;3.00
65383;PMS5003;51986;52.788;41.368;2022-12-05T07:03:52;11.00;8.00;3.00
65383;PMS5003;51986;52.788;41.368;2022-12-05T07:06:19;7.50;6.00;3.00
65383;PMS5003;51986;52.788;41.368;2022-12-05T07:08:45;11.75;9.75;4.00
65383;PMS5003;51986;52.788;41.368;2022-12-05T07:11:12;12.50;11.00;5.00
65383;PMS5003;51986;52.788;41.368;2022-12-05T07:13:39;13.75;12.75;5.00
65383;PMS5003;51986;52.788;41.368;2022-12-05T07:16:06;15.50;14.00;6.00
65383;PMS5003;51986;52.788;41.368;2022-12-05T07:18:34;14.00;13.00;5.00
65383;PMS5003;51986;52.788;41.368;2022-12-05T07:21:03;15.25;14.25;6.00
65383;PMS5003;51986;52.788;41.368;2022-12-05T07:23:42;16.25;15.00;8.00
65383;PMS5003;51986;52.788;41.368;2022-12-05T07:26:12;15.75;14.00;8.00
65383;PMS5003;51986;52.788;41.368;2022-12-05T07:28:40;13.00;12.00;6.00
65383;PMS5003;51986;52.788;41.368;2022-12-05T07:31:09;19.00;17.00;9.75
65383;PMS5003;51986;52.788;41.368;2022-12-05T07:33:37;12.75;11.00;5.00
65383;PMS5003;51986;52.788;41.368;2022-12-05T07:36:08;13.00;10.75;4.50
65383;PMS5003;51986;52.788;41.368;2022-12-05T07:38:37;11.00;10.00;5.00
65383;PMS5003;51986;52.788;41.368;2022-12-05T07:41:08;11.00;8.00;3.75
65383;PMS5003;51986;52.788;41.368;2022-12-05T07:43:40;10.00;8.00;4.00
65383;PMS5003;51986;52.788;41.368;2022-12-05T07:46:08;13.00;9.00;5.00
65383;PMS5003;51986;52.788;41.368;2022-12-05T07:48:36;11.25;8.50;3.00
65383;PMS5003;51986;52.788;41.368;2022-12-05T07:51:03;12.00;10.00;5.00
65383;PMS5003;51986;52.788;41.368;2022-12-05T07:53:32;12.00;10.00;4.75
65383;PMS5003;51986;52.788;41.368;2022-12-05T07:56:00;13.00;10.00;4.50
65383;PMS5003;51986;52.788;41.368;2022-12-05T07:58:29;11.00;10.00;4.00
65383;PMS5003;51986;52.788;41.368;2022-12-05T08:01:04;11.00;9.50;3.00
65383;PMS5003;51986;52.788;41.368;2022-12-05T08:03:39;11.50;9.25;3.50
65383;PMS5003;51986;52.788;41.368;2022-12-05T08:06:08;12.00;10.00;3.00
65383;PMS5003;51986;52.788;41.368;2022-12-05T08:08:36;10.50;8.50;3.50
65383;PMS5003;51986;52.788;41.368;2022-12-05T08:11:04;12.25;11.75;6.00
65383;PMS5003;51986;52.788;41.368;2022-12-05T08:13:36;14.00;12.00;5.00
65383;PMS5003;51986;52.788;41.368;2022-12-05T08:16:04;12.00;10.25;4.50
65383;PMS5003;51986;52.788;41.368;2022-12-05T08:18:33;10.00;9.00;3.00
65383;PMS5003;51986;52.788;41.368;2022-12-05T08:21:01;12.00;10.00;5.00
65383;PMS5003;51986;52.788;41.368;2022-12-05T08:23:30;12.00;10.50;5.00
65383;PMS5003;51986;52.788;41.368;2022-12-05T08:26:01;14.00;12.00;5.00
65383;PMS5003;51986;52.788;41.368;2022-12-05T08:28:29;12.00;10.00;4.00
65383;PMS5003;51986;52.788;41.368;2022-12-05T08:31:04;12.00;10.75;5.00
65383;PMS5003;51986;52.788;41.368;2022-12-05T08:33:33;12.00;12.00;7.00
65383;PMS5003;51986;52.788;41.368;2022-12-05T08:36:01;12.00;11.00;5.00
65383;PMS5003;51986;52.788;41.368;2022-12-05T08:38:29;12.00;11.00;5.00
65383;PMS5003;51986;52.788;41.368;2022-12-05T08:41:04;12.00;11.00;4.25
65383;PMS5003;51986;52.788;41.368;2022-12-05T08:43:33;11.00;10.00;5.00
65383;PMS5003;51986;52.788;41.368;2022-12-05T08:46:00;12.00;10.00;5.00
65383;PMS5003;51986;52.788;41.368;2022-12-05T08:48:29;9.75;8.00;3.00
65383;PMS5003;51986;52.788;41.368;2022-12-05T08:50:59;8.00;5.00;3.00
65383;PMS5003;51986;52.788;41.368;2022-12-05T08:53:30;8.25;6.00;3.00
65383;PMS5003;51986;52.788;41.368;2022-12-05T08:56:04;7.75;6.00;3.00
65383;PMS5003;51986;52.788;41.368;2022-12-05T08:58:32;11.75;9.75;5.50
65383;PMS5003;51986;52.788;41.368;2022-12-05T09:01:10;21.00;17.25;8.25
65383;PMS5003;51986;52.788;41.368;2022-12-05T09:03:39;9.25;6.75;2.00
65383;PMS5003;51986;52.788;41.368;2022-12-05T09:06:17;10.75;9.00;6.00
65383;PMS5003;51986;52.788;41.368;2022-12-05T09:08:45;9.00;7.00;4.00
65383;PMS5003;51986;52.788;41.368;2022-12-05T09:11:17;5.00;5.00;1.25
65383;PMS5003;51986;52.788;41.368;2022-12-05T09:13:46;3.25;3.25;1.50
65383;PMS5003;51986;52.788;41.368;2022-12-05T09:16:22;3.00;3.00;1.00
65383;PMS5003;51986;52.788;41.368;2022-12-05T09:18:52;4.00;3.25;2.00
65383;PMS5003;51986;52.788;41.368;2022-12-05T09:21:20;5.00;5.00;2.00
65383;PMS5003;51986;52.788;41.368;2022-12-05T09:23:49;6.25;5.00;1.75
65383;PMS5003;51986;52.788;41.368;2022-12-05T09:26:18;5.50;3.50;2.75
65383;PMS5003;51986;52.788;41.368;2022-12-05T09:28:47;6.00;5.00;3.00
65383;PMS5003;51986;52.788;41.368;2022-12-05T09:31:15;11.00;7.50;5.00
65383;PMS5003;51986;52.788;41.368;2022-12-05T09:33:45;9.00;7.75;3.00
65383;PMS5003;51986;52.788;41.368;2022-12-05T09:36:14;8.00;6.00;3.00
65383;PMS5003;51986;52.788;41.368;2022-12-05T09:38:46;10.25;7.00;4.00
65383;PMS5003;51986;52.788;41.368;2022-12-05T09:43:53;12.00;9.00;5.00
65383;PMS5003;51986;52.788;41.368;2022-12-05T09:46:33;9.00;5.50;2.00
65383;PMS5003;51986;52.788;41.368;2022-12-05T09:49:06;7.00;5.00;3.00
65383;PMS5003;51986;52.788;41.368;2022-12-05T09:51:37;9.25;8.50;5.00
65383;PMS5003;51986;52.788;41.368;2022-12-05T09:54:10;15.00;14.00;9.00
65383;PMS5003;51986;52.788;41.368;2022-12-05T09:56:38;10.50;10.00;5.00
65383;PMS5003;51986;52.788;41.368;2022-12-05T09:59:13;10.00;9.00;5.00
65383;PMS5003;51986;52.788;41.368;2022-12-05T10:07:44;11.00;9.50;4.00
65383;PMS5003;51986;52.788;41.368;2022-12-05T10:10:31;10.50;9.00;3.00
65383;PMS5003;51986;52.788;41.368;2022-12-05T10:15:51;19.25;16.75;10.50
65383;PMS5003;51986;52.788;41.368;2022-12-05T10:18:34;19.75;18.00;12.00
65383;PMS5003;51986;52.788;41.368;2022-12-05T10:21:20;17.00;15.00;9.00
65383;PMS5003;51986;52.788;41.368;2022-12-05T10:23:58;15.50;13.25;6.75
65383;PMS5003;51986;52.788;41.368;2022-12-05T10:29:56;12.00;11.25;4.75
65383;PMS5003;51986;52.788;41.368;2022-12-05T10:35:18;14.00;13.00;9.00
65383;PMS5003;51986;52.788;41.368;2022-12-05T10:37:55;12.00;12.00;5.75
65383;PMS5003;51986;52.788;41.368;2022-12-05T10:40:26;13.00;11.75;5.25
65383;PMS5003;51986;52.788;41.368;2022-12-05T10:43:24;17.75;14.50;9.00
65383;PMS5003;51986;52.788;41.368;2022-12-05T10:45:53;14.75;12.00;7.00
65383;PMS5003;51986;52.788;41.368;2022-12-05T10:48:21;10.00;8.25;4.00
65383;PMS5003;51986;52.788;41.368;2022-12-05T10:50:50;8.00;6.50;3.00
65383;PMS5003;51986;52.788;41.368;2022-12-05T10:59:06;9.00;5.00;3.00
65383;PMS5003;51986;52.788;41.368;2022-12-05T11:01:35;9.75;7.00;3.50
65383;PMS5003;51986;52.788;41.368;2022-12-05T11:04:07;8.00;5.25;3.00
65383;PMS5003;51986;52.788;41.368;2022-12-05T11:06:52;6.00;5.00;1.00
65383;PMS5003;51986;52.788;41.368;2022-12-05T11:09:30;7.00;5.00;1.00
65383;PMS5003;51986;52.788;41.368;2022-12-05T11:14:35;4.00;4.00;1.25
65383;PMS5003;51986;52.788;41.368;2022-12-05T11:17:02;7.25;7.00;3.00
65383;PMS5003;51986;52.788;41.368;2022-12-05T11:19:34;5.00;4.25;1.25
65383;PMS5003;51986;52.788;41.368;2022-12-05T11:22:04;5.25;4.00;1.00
65383;PMS5003;51986;52.788;41.368;2022-12-05T11:24:32;5.50;4.00;1.00
65383;PMS5003;51986;52.788;41.368;2022-12-05T11:29:44;4.00;3.00;0.00
65383;PMS5003;51986;52.788;41.368;2022-12-05T11:32:31;7.25;6.00;2.75
65383;PMS5003;51986;52.788;41.368;2022-12-05T11:43:11;3.00;2.75;1.00
65383;PMS5003;51986;52.788;41.368;2022-12-05T11:51:37;5.00;3.75;1.25
65383;PMS5003;51986;52.788;41.368;2022-12-05T11:57:22;5.00;4.00;1.50
65383;PMS5003;51986;52.788;41.368;2022-12-05T12:00:00;3.00;3.00;1.00
65383;PMS5003;51986;52.788;41.368;2022-12-05T12:06:10;5.75;5.00;3.00
65383;PMS5003;51986;52.788;41.368;2022-12-05T12:08:51;5.00;5.00;1.00
65383;PMS5003;51986;52.788;41.368;2022-12-05T12:14:18;3.75;3.00;1.00
65383;PMS5003;51986;52.788;41.368;2022-12-05T12:16:50;2.50;2.50;1.00
65383;PMS5003;51986;52.788;41.368;2022-12-05T12:22:37;4.50;4.25;2.00
65383;PMS5003;51986;52.788;41.368;2022-12-05T12:33:26;5.00;3.25;1.00
65383;PMS5003;51986;52.788;41.368;2022-12-05T12:36:09;5.00;3.50;1.00
65383;PMS5003;51986;52.788;41.368;2022-12-05T12:38:50;8.00;6.00;3.00
65383;PMS5003;51986;52.788;41.368;2022-12-05T12:52:27;9.00;5.00;3.00
65383;PMS5003;51986;52.788;41.368;2022-12-05T13:06:12;11.00;10.00;4.00
65383;PMS5003;51986;52.788;41.368;2022-12-05T13:08:51;13.25;11.25;4.00
65383;PMS5003;51986;52.788;41.368;2022-12-05T13:11:23;18.25;16.25;7.00
65383;PMS5003;51986;52.788;41.368;2022-12-05T13:13:54;14.25;12.75;4.00
65383;PMS5003;51986;52.788;41.368;2022-12-05T13:16:43;11.00;9.25;3.00
65383;PMS5003;51986;52.788;41.368;2022-12-05T13:19:19;11.00;10.00;4.00
65383;PMS5003;51986;52.788;41.368;2022-12-05T13:21:49;9.00;8.00;3.75
65383;PMS5003;51986;52.788;41.368;2022-12-05T13:24:18;7.00;5.00;2.00
65383;PMS5003;51986;52.788;41.368;2022-12-05T13:26:50;7.25;4.00;2.00
65383;PMS5003;51986;52.788;41.368;2022-12-05T13:29:23;8.00;5.00;1.00
65383;PMS5003;51986;52.788;41.368;2022-12-05T13:32:00;7.00;5.00;1.75
65383;PMS5003;51986;52.788;41.368;2022-12-05T13:37:29;6.50;5.00;2.00
65383;PMS5003;51986;52.788;41.368;2022-12-05T13:39:57;5.00;3.00;2.00
65383;PMS5003;51986;52.788;41.368;2022-12-05T13:42:25;4.75;3.00;1.00
65383;PMS5003;51986;52.788;41.368;2022-12-05T13:47:36;4.75;4.75;1.00
65383;PMS5003;51986;52.788;41.368;2022-12-05T13:50:23;8.00;7.00;2.00
65383;PMS5003;51986;52.788;41.368;2022-12-05T13:52:55;9.00;7.00;3.00
65383;PMS5003;51986;52.788;41.368;2022-12-05T14:00:46;9.25;7.25;3.00
65383;PMS5003;51986;52.788;41.368;2022-12-05T14:05:58;12.00;10.00;4.50
65383;PMS5003;51986;52.788;41.368;2022-12-05T14:15:52;13.25;11.25;6.25
65383;PMS5003;51986;52.788;41.368;2022-12-05T14:23:45;11.75;9.50;5.00
65383;PMS5003;51986;52.788;41.368;2022-12-05T14:26:38;9.75;8.00;3.00
65383;PMS5003;51986;52.788;41.368;2022-12-05T14:34:51;11.00;7.00;3.00
65383;PMS5003;51986;52.788;41.368;2022-12-05T14:37:33;10.00;6.50;3.50
65383;PMS5003;51986;52.788;41.368;2022-12-05T14:40:15;12.75;9.50;5.00
65383;PMS5003;51986;52.788;41.368;2022-12-05T14:42:59;12.50;10.50;4.75
65383;PMS5003;51986;52.788;41.368;2022-12-05T14:45:37;12.00;11.00;5.00
65383;PMS5003;51986;52.788;41.368;2022-12-05T14:55:43;19.75;16.00;8.00
65383;PMS5003;51986;52.788;41.368;2022-12-05T15:00:55;15.00;14.00;6.00
65383;PMS5003;51986;52.788;41.368;2022-12-05T15:03:33;15.00;14.00;6.00
65383;PMS5003;51986;52.788;41.368;2022-12-05T15:06:05;14.00;12.00;6.00
65383;PMS5003;51986;52.788;41.368;2022-12-05T15:08:42;12.25;12.00;5.00
65383;PMS5003;51986;52.788;41.368;2022-12-05T15:11:16;13.25;12.50;6.50
65383;PMS5003;51986;52.788;41.368;2022-12-05T15:13:46;13.25;12.50;5.50
65383;PMS5003;51986;52.788;41.368;2022-12-05T15:16:13;14.75;12.50;5.50
65383;PMS5003;51986;52.788;41.368;2022-12-05T15:18:46;13.00;11.00;4.50
65383;PMS5003;51986;52.788;41.368;2022-12-05T15:21:28;12.00;10.00;4.75
65383;PMS5003;51986;52.788;41.368;2022-12-05T15:24:04;12.25;10.75;5.50
65383;PMS5003;51986;52.788;41.368;2022-12-05T15:26:38;11.00;10.00;5.00
65383;PMS5003;51986;52.788;41.368;2022-12-05T15:29:16;16.75;12.75;7.50
65383;PMS5003;51986;52.788;41.368;2022-12-05T15:40:15;20.00;15.75;10.00
65383;PMS5003;51986;52.788;41.368;2022-12-05T15:42:46;15.25;12.00;6.00
65383;PMS5003;51986;52.788;41.368;2022-12-05T15:45:18;11.00;10.00;5.00
65383;PMS5003;51986;52.788;41.368;2022-12-05T15:58:39;9.75;6.75;2.00
65383;PMS5003;51986;52.788;41.368;2022-12-05T16:01:23;7.00;5.00;3.00
65383;PMS5003;51986;52.788;41.368;2022-12-05T16:04:12;6.00;5.00;2.00
65383;PMS5003;51986;52.788;41.368;2022-12-05T16:07:02;7.00;6.00;3.00
65383;PMS5003;51986;52.788;41.368;2022-12-05T16:09:34;11.00;8.25;4.25
65383;PMS5003;51986;52.788;41.368;2022-12-05T16:12:15;13.00;10.75;5.00
65383;PMS5003;51986;52.788;41.368;2022-12-05T16:17:54;11.00;9.00;3.25
65383;PMS5003;51986;52.788;41.368;2022-12-05T16:20:33;11.00;8.00;3.00
65383;PMS5003;51986;52.788;41.368;2022-12-05T16:23:03;5.50;4.50;1.00
65383;PMS5003;51986;52.788;41.368;2022-12-05T16:25:46;4.00;4.00;0.50
65383;PMS5003;51986;52.788;41.368;2022-12-05T16:28:14;3.00;3.00;1.00
65383;PMS5003;51986;52.788;41.368;2022-12-05T16:30:59;4.50;3.00;1.00
65383;PMS5003;51986;52.788;41.368;2022-12-05T16:33:28;5.50;5.00;2.00
65383;PMS5003;51986;52.788;41.368;2022-12-05T16:36:09;2.00;2.00;1.00
65383;PMS5003;51986;52.788;41.368;2022-12-05T16:38:38;3.50;3.25;0.25
65383;PMS5003;51986;52.788;41.368;2022-12-05T16:41:05;3.50;3.00;1.00
65383;PMS5003;51986;52.788;41.368;2022-12-05T16:48:37;10.00;7.00;3.00
65383;PMS5003;51986;52.788;41.368;2022-12-05T16:53:40;9.75;7.00;3.00
65383;PMS5003;51986;52.788;41.368;2022-12-05T16:56:11;9.25;7.50;3.00
65383;PMS5003;51986;52.788;41.368;2022-12-05T16:58:41;8.00;6.00;3.00
65383;PMS5003;51986;52.788;41.368;2022-12-05T17:01:15;6.25;5.00;2.00
65383;PMS5003;51986;52.788;41.368;2022-12-05T17:03:46;4.25;3.25;1.00
65383;PMS5003;51986;52.788;41.368;2022-12-05T17:06:14;8.00;6.00;3.00
65383;PMS5003;51986;52.788;41.368;2022-12-05T17:08:41;7.25;5.00;3.00
65383;PMS5003;51986;52.788;41.368;2022-12-05T17:14:02;8.00;6.00;3.00
65383;PMS5003;51986;52.788;41.368;2022-12-05T17:16:29;8.00;5.00;2.00
65383;PMS5003;51986;52.788;41.368;2022-12-05T17:18:56;6.25;4.75;2.25
65383;PMS5003;51986;52.788;41.368;2022-12-05T17:21:24;6.00;5.00;3.00
65383;PMS5003;51986;52.788;41.368;2022-12-05T17:23:55;6.00;5.00;2.00
65383;PMS5003;51986;52.788;41.368;2022-12-05T17:26:22;8.50;7.00;3.00
65383;PMS5003;51986;52.788;41.368;2022-12-05T17:28:50;5.00;3.00;1.50
65383;PMS5003;51986;52.788;41.368;2022-12-05T17:31:18;6.00;5.00;2.50
65383;PMS5003;51986;52.788;41.368;2022-12-05T17:33:47;10.00;6.75;3.00
65383;PMS5003;51986;52.788;41.368;2022-12-05T17:36:15;8.00;6.50;3.00
65383;PMS5003;51986;52.788;41.368;2022-12-05T17:38:43;8.00;6.00;3.00
65383;PMS5003;51986;52.788;41.368;2022-12-05T17:41:13;10.25;9.00;3.00
65383;PMS5003;51986;52.788;41.368;2022-12-05T17:43:43;10.00;10.00;3.00
65383;PMS5003;51986;52.788;41.368;2022-12-05T17:46:15;12.00;10.00;4.75
65383;PMS5003;51986;52.788;41.368;2022-12-05T17:48:45;9.00;6.75;3.00